sensor_id;sensor_type;location;lat;lon;timestamp;temperature;humidity
21495;DHT22;10909;53.590;10.054;2023-07-22T00:02:22;18.10;66.70
21495;DHT22;10909;53.590;10.054;2023-07-22T00:04:48;18.00;67.50
21495;DHT22;10909;53.590;10.054;2023-07-22T00:07:14;18.00;67.10
21495;DHT22;10909;53.590;10.054;2023-07-22T00:09:41;18.00;67.00
21495;DHT22;10909;53.590;10.054;2023-07-22T00:12:07;18.00;67.20
21495;DHT22;10909;53.590;10.054;2023-07-22T00:14:34;18.00;67.20
21495;DHT22;10909;53.590;10.054;2023-07-22T00:17:00;17.90;67.70
21495;DHT22;10909;53.590;10.054;2023-07-22T00:19:25;17.90;67.70
21495;DHT22;10909;53.590;10.054;2023-07-22T00:21:51;17.90;68.10
21495;DHT22;10909;53.590;10.054;2023-07-22T00:24:17;17.80;67.80
21495;DHT22;10909;53.590;10.054;2023-07-22T00:26:44;17.80;67.90
21495;DHT22;10909;53.590;10.054;2023-07-22T00:29:09;17.80;68.10
21495;DHT22;10909;53.590;10.054;2023-07-22T00:31:35;17.70;68.20
21495;DHT22;10909;53.590;10.054;2023-07-22T00:34:00;17.70;67.80
21495;DHT22;10909;53.590;10.054;2023-07-22T00:36:26;17.70;67.70
21495;DHT22;10909;53.590;10.054;2023-07-22T00:38:52;17.70;68.00
21495;DHT22;10909;53.590;10.054;2023-07-22T00:41:18;17.70;68.10
21495;DHT22;10909;53.590;10.054;2023-07-22T00:43:44;17.70;67.80
21495;DHT22;10909;53.590;10.054;2023-07-22T00:46:10;17.70;67.90
21495;DHT22;10909;53.590;10.054;2023-07-22T00:48:36;17.60;68.30
21495;DHT22;10909;53.590;10.054;2023-07-22T00:51:03;17.60;68.30
21495;DHT22;10909;53.590;10.054;2023-07-22T00:53:29;17.60;68.20
21495;DHT22;10909;53.590;10.054;2023-07-22T00:55:54;17.60;68.50
21495;DHT22;10909;53.590;10.054;2023-07-22T00:58:20;17.60;68.50
21495;DHT22;10909;53.590;10.054;2023-07-22T01:00:46;17.50;68.60
21495;DHT22;10909;53.590;10.054;2023-07-22T01:03:12;17.50;68.50
21495;DHT22;10909;53.590;10.054;2023-07-22T01:05:39;17.50;68.50
21495;DHT22;10909;53.590;10.054;2023-07-22T01:08:05;17.50;69.00
21495;DHT22;10909;53.590;10.054;2023-07-22T01:10:31;17.50;69.00
21495;DHT22;10909;53.590;10.054;2023-07-22T01:12:57;17.50;69.10
21495;DHT22;10909;53.590;10.054;2023-07-22T01:15:24;17.40;68.90
21495;DHT22;10909;53.590;10.054;2023-07-22T01:17:50;17.40;69.00
21495;DHT22;10909;53.590;10.054;2023-07-22T01:20:17;17.40;69.00
21495;DHT22;10909;53.590;10.054;2023-07-22T01:22:53;17.40;69.30
21495;DHT22;10909;53.590;10.054;2023-07-22T01:25:23;17.40;69.30
21495;DHT22;10909;53.590;10.054;2023-07-22T01:27:52;17.40;69.30
21495;DHT22;10909;53.590;10.054;2023-07-22T01:30:19;17.30;69.10
21495;DHT22;10909;53.590;10.054;2023-07-22T01:32:47;17.30;68.90
21495;DHT22;10909;53.590;10.054;2023-07-22T01:35:13;17.30;69.00
21495;DHT22;10909;53.590;10.054;2023-07-22T01:37:39;17.30;69.50
21495;DHT22;10909;53.590;10.054;2023-07-22T01:40:05;17.20;69.40
21495;DHT22;10909;53.590;10.054;2023-07-22T01:42:38;17.20;69.40
21495;DHT22;10909;53.590;10.054;2023-07-22T01:45:05;17.20;69.40
21495;DHT22;10909;53.590;10.054;2023-07-22T01:47:34;17.10;69.50
21495;DHT22;10909;53.590;10.054;2023-07-22T01:50:00;17.10;69.80
21495;DHT22;10909;53.590;10.054;2023-07-22T01:52:26;17.10;69.50
21495;DHT22;10909;53.590;10.054;2023-07-22T01:54:51;17.10;69.50
21495;DHT22;10909;53.590;10.054;2023-07-22T01:57:17;17.10;69.70
21495;DHT22;10909;53.590;10.054;2023-07-22T01:59:43;17.10;69.70
21495;DHT22;10909;53.590;10.054;2023-07-22T02:02:08;17.10;69.60
21495;DHT22;10909;53.590;10.054;2023-07-22T02:04:34;17.10;70.50
21495;DHT22;10909;53.590;10.054;2023-07-22T02:07:00;17.10;69.80
21495;DHT22;10909;53.590;10.054;2023-07-22T02:09:25;17.10;69.70
21495;DHT22;10909;53.590;10.054;2023-07-22T02:11:51;17.00;69.80
21495;DHT22;10909;53.590;10.054;2023-07-22T02:14:17;17.00;69.70
21495;DHT22;10909;53.590;10.054;2023-07-22T02:16:42;17.00;69.80
21495;DHT22;10909;53.590;10.054;2023-07-22T02:19:08;17.00;69.80
21495;DHT22;10909;53.590;10.054;2023-07-22T02:21:33;17.00;69.80
21495;DHT22;10909;53.590;10.054;2023-07-22T02:23:59;17.00;69.70
21495;DHT22;10909;53.590;10.054;2023-07-22T02:26:24;16.90;69.80
21495;DHT22;10909;53.590;10.054;2023-07-22T02:28:50;16.90;69.70
21495;DHT22;10909;53.590;10.054;2023-07-22T02:31:16;16.90;69.90
21495;DHT22;10909;53.590;10.054;2023-07-22T02:33:42;16.90;70.60
21495;DHT22;10909;53.590;10.054;2023-07-22T02:36:08;16.80;69.80
21495;DHT22;10909;53.590;10.054;2023-07-22T02:38:34;16.90;70.40
21495;DHT22;10909;53.590;10.054;2023-07-22T02:41:03;16.80;70.10
21495;DHT22;10909;53.590;10.054;2023-07-22T02:43:32;16.80;70.20
21495;DHT22;10909;53.590;10.054;2023-07-22T02:45:59;16.70;70.20
21495;DHT22;10909;53.590;10.054;2023-07-22T02:48:25;16.70;70.60
21495;DHT22;10909;53.590;10.054;2023-07-22T02:50:50;16.70;70.60
21495;DHT22;10909;53.590;10.054;2023-07-22T02:53:16;16.70;70.40
21495;DHT22;10909;53.590;10.054;2023-07-22T02:55:42;16.60;70.50
21495;DHT22;10909;53.590;10.054;2023-07-22T02:58:08;16.60;70.50
21495;DHT22;10909;53.590;10.054;2023-07-22T03:00:34;16.60;70.80
21495;DHT22;10909;53.590;10.054;2023-07-22T03:02:59;16.60;70.40
21495;DHT22;10909;53.590;10.054;2023-07-22T03:05:29;16.60;71.00
21495;DHT22;10909;53.590;10.054;2023-07-22T03:07:57;16.50;70.80
21495;DHT22;10909;53.590;10.054;2023-07-22T03:10:22;16.50;71.00
21495;DHT22;10909;53.590;10.054;2023-07-22T03:12:49;16.50;71.10
21495;DHT22;10909;53.590;10.054;2023-07-22T03:15:15;16.50;71.10
21495;DHT22;10909;53.590;10.054;2023-07-22T03:17:41;16.50;71.30
21495;DHT22;10909;53.590;10.054;2023-07-22T03:20:10;16.50;71.10
21495;DHT22;10909;53.590;10.054;2023-07-22T03:22:43;16.50;71.40
21495;DHT22;10909;53.590;10.054;2023-07-22T03:25:10;16.40;71.60
21495;DHT22;10909;53.590;10.054;2023-07-22T03:27:36;16.40;71.60
21495;DHT22;10909;53.590;10.054;2023-07-22T03:30:06;16.40;71.40
21495;DHT22;10909;53.590;10.054;2023-07-22T03:32:36;16.50;71.50
21495;DHT22;10909;53.590;10.054;2023-07-22T03:35:02;16.40;71.80
21495;DHT22;10909;53.590;10.054;2023-07-22T03:37:29;16.40;71.90
21495;DHT22;10909;53.590;10.054;2023-07-22T03:39:55;16.40;71.80
21495;DHT22;10909;53.590;10.054;2023-07-22T03:42:20;16.40;71.70
21495;DHT22;10909;53.590;10.054;2023-07-22T03:44:46;16.40;71.80
21495;DHT22;10909;53.590;10.054;2023-07-22T03:47:11;16.40;71.80
21495;DHT22;10909;53.590;10.054;2023-07-22T03:49:38;16.40;71.70
21495;DHT22;10909;53.590;10.054;2023-07-22T03:52:04;16.40;71.80
21495;DHT22;10909;53.590;10.054;2023-07-22T03:54:30;16.40;71.90
21495;DHT22;10909;53.590;10.054;2023-07-22T03:56:55;16.40;72.00
21495;DHT22;10909;53.590;10.054;2023-07-22T03:59:21;16.40;72.00
21495;DHT22;10909;53.590;10.054;2023-07-22T04:01:47;16.40;72.00
21495;DHT22;10909;53.590;10.054;2023-07-22T04:04:13;16.50;72.10
21495;DHT22;10909;53.590;10.054;2023-07-22T04:06:38;16.50;72.20
21495;DHT22;10909;53.590;10.054;2023-07-22T04:09:06;16.50;72.30
21495;DHT22;10909;53.590;10.054;2023-07-22T04:11:32;16.50;72.30
21495;DHT22;10909;53.590;10.054;2023-07-22T04:13:58;16.50;72.10
21495;DHT22;10909;53.590;10.054;2023-07-22T04:16:23;16.50;72.10
21495;DHT22;10909;53.590;10.054;2023-07-22T04:18:49;16.50;72.30
21495;DHT22;10909;53.590;10.054;2023-07-22T04:21:15;16.60;72.20
21495;DHT22;10909;53.590;10.054;2023-07-22T04:23:40;16.60;72.30
21495;DHT22;10909;53.590;10.054;2023-07-22T04:26:06;16.60;72.50
21495;DHT22;10909;53.590;10.054;2023-07-22T04:28:33;16.60;72.00
21495;DHT22;10909;53.590;10.054;2023-07-22T04:31:00;16.60;72.20
21495;DHT22;10909;53.590;10.054;2023-07-22T04:33:28;16.60;72.30
21495;DHT22;10909;53.590;10.054;2023-07-22T04:35:55;16.50;72.00
21495;DHT22;10909;53.590;10.054;2023-07-22T04:38:21;16.50;72.30
21495;DHT22;10909;53.590;10.054;2023-07-22T04:40:48;16.50;72.30
21495;DHT22;10909;53.590;10.054;2023-07-22T04:43:13;16.50;72.60
21495;DHT22;10909;53.590;10.054;2023-07-22T04:45:39;16.50;72.70
21495;DHT22;10909;53.590;10.054;2023-07-22T04:48:08;16.50;72.70
21495;DHT22;10909;53.590;10.054;2023-07-22T04:50:34;16.60;73.00
21495;DHT22;10909;53.590;10.054;2023-07-22T04:52:59;16.60;73.00
21495;DHT22;10909;53.590;10.054;2023-07-22T04:55:25;16.60;73.00
21495;DHT22;10909;53.590;10.054;2023-07-22T04:57:51;16.70;72.90
21495;DHT22;10909;53.590;10.054;2023-07-22T05:00:17;16.70;72.90
21495;DHT22;10909;53.590;10.054;2023-07-22T05:02:45;16.80;73.10
21495;DHT22;10909;53.590;10.054;2023-07-22T05:05:12;16.80;73.00
21495;DHT22;10909;53.590;10.054;2023-07-22T05:07:38;16.80;72.90
21495;DHT22;10909;53.590;10.054;2023-07-22T05:10:07;16.80;73.00
21495;DHT22;10909;53.590;10.054;2023-07-22T05:12:37;16.90;72.90
21495;DHT22;10909;53.590;10.054;2023-07-22T05:15:10;16.90;72.70
21495;DHT22;10909;53.590;10.054;2023-07-22T05:17:39;16.90;72.60
21495;DHT22;10909;53.590;10.054;2023-07-22T05:20:05;17.00;72.70
21495;DHT22;10909;53.590;10.054;2023-07-22T05:22:39;17.00;72.70
21495;DHT22;10909;53.590;10.054;2023-07-22T05:25:06;17.00;72.60
21495;DHT22;10909;53.590;10.054;2023-07-22T05:27:32;17.00;72.60
21495;DHT22;10909;53.590;10.054;2023-07-22T05:29:58;17.00;72.50
21495;DHT22;10909;53.590;10.054;2023-07-22T05:32:23;17.00;72.50
21495;DHT22;10909;53.590;10.054;2023-07-22T05:34:49;17.00;72.50
21495;DHT22;10909;53.590;10.054;2023-07-22T05:37:15;17.10;72.50
21495;DHT22;10909;53.590;10.054;2023-07-22T05:39:40;17.10;72.20
21495;DHT22;10909;53.590;10.054;2023-07-22T05:42:06;17.10;72.20
21495;DHT22;10909;53.590;10.054;2023-07-22T05:44:32;17.10;72.40
21495;DHT22;10909;53.590;10.054;2023-07-22T05:46:57;17.10;72.30
21495;DHT22;10909;53.590;10.054;2023-07-22T05:49:23;17.10;72.20
21495;DHT22;10909;53.590;10.054;2023-07-22T05:51:49;17.10;72.20
21495;DHT22;10909;53.590;10.054;2023-07-22T05:54:15;17.10;72.20
21495;DHT22;10909;53.590;10.054;2023-07-22T05:56:40;17.10;72.30
21495;DHT22;10909;53.590;10.054;2023-07-22T05:59:06;17.10;72.30
21495;DHT22;10909;53.590;10.054;2023-07-22T06:01:32;17.10;73.20
21495;DHT22;10909;53.590;10.054;2023-07-22T06:03:58;17.10;73.30
21495;DHT22;10909;53.590;10.054;2023-07-22T06:06:24;17.20;72.70
21495;DHT22;10909;53.590;10.054;2023-07-22T06:08:49;17.20;72.60
21495;DHT22;10909;53.590;10.054;2023-07-22T06:11:15;17.20;72.60
21495;DHT22;10909;53.590;10.054;2023-07-22T06:13:40;17.30;72.70
21495;DHT22;10909;53.590;10.054;2023-07-22T06:16:06;17.30;72.60
21495;DHT22;10909;53.590;10.054;2023-07-22T06:18:32;17.40;72.40
21495;DHT22;10909;53.590;10.054;2023-07-22T06:20:57;17.50;72.20
21495;DHT22;10909;53.590;10.054;2023-07-22T06:23:23;17.50;72.00
21495;DHT22;10909;53.590;10.054;2023-07-22T06:25:49;17.60;72.00
21495;DHT22;10909;53.590;10.054;2023-07-22T06:28:14;17.60;72.00
21495;DHT22;10909;53.590;10.054;2023-07-22T06:30:40;17.60;71.80
21495;DHT22;10909;53.590;10.054;2023-07-22T06:33:05;17.70;71.50
21495;DHT22;10909;53.590;10.054;2023-07-22T06:35:31;17.70;71.30
21495;DHT22;10909;53.590;10.054;2023-07-22T06:37:57;17.70;72.20
21495;DHT22;10909;53.590;10.054;2023-07-22T06:40:24;17.80;72.20
21495;DHT22;10909;53.590;10.054;2023-07-22T06:42:50;17.80;71.40
21495;DHT22;10909;53.590;10.054;2023-07-22T06:45:15;17.80;71.30
21495;DHT22;10909;53.590;10.054;2023-07-22T06:47:41;17.90;71.20
21495;DHT22;10909;53.590;10.054;2023-07-22T06:50:07;17.90;71.10
21495;DHT22;10909;53.590;10.054;2023-07-22T06:52:32;17.90;71.20
21495;DHT22;10909;53.590;10.054;2023-07-22T06:54:59;18.00;71.10
21495;DHT22;10909;53.590;10.054;2023-07-22T06:57:24;18.00;70.80
21495;DHT22;10909;53.590;10.054;2023-07-22T06:59:56;18.10;70.90
21495;DHT22;10909;53.590;10.054;2023-07-22T07:02:22;18.20;71.00
21495;DHT22;10909;53.590;10.054;2023-07-22T07:04:48;18.20;70.60
21495;DHT22;10909;53.590;10.054;2023-07-22T07:07:14;18.30;71.10
21495;DHT22;10909;53.590;10.054;2023-07-22T07:09:40;18.40;70.40
21495;DHT22;10909;53.590;10.054;2023-07-22T07:12:06;18.40;70.20
21495;DHT22;10909;53.590;10.054;2023-07-22T07:14:33;18.50;70.10
21495;DHT22;10909;53.590;10.054;2023-07-22T07:16:58;18.50;70.00
21495;DHT22;10909;53.590;10.054;2023-07-22T07:19:24;18.70;70.10
21495;DHT22;10909;53.590;10.054;2023-07-22T07:21:50;18.70;69.30
21495;DHT22;10909;53.590;10.054;2023-07-22T07:24:15;18.80;68.90
21495;DHT22;10909;53.590;10.054;2023-07-22T07:26:41;18.90;68.70
21495;DHT22;10909;53.590;10.054;2023-07-22T07:29:07;18.90;68.70
21495;DHT22;10909;53.590;10.054;2023-07-22T07:31:33;19.00;68.30
21495;DHT22;10909;53.590;10.054;2023-07-22T07:34:00;19.10;67.90
21495;DHT22;10909;53.590;10.054;2023-07-22T07:36:26;19.10;67.90
21495;DHT22;10909;53.590;10.054;2023-07-22T07:38:52;19.20;67.60
21495;DHT22;10909;53.590;10.054;2023-07-22T07:41:17;19.30;68.10
21495;DHT22;10909;53.590;10.054;2023-07-22T07:43:43;19.30;67.60
21495;DHT22;10909;53.590;10.054;2023-07-22T07:48:46;19.50;67.40
21495;DHT22;10909;53.590;10.054;2023-07-22T07:51:13;19.50;66.90
21495;DHT22;10909;53.590;10.054;2023-07-22T07:53:39;19.60;67.20
21495;DHT22;10909;53.590;10.054;2023-07-22T07:56:06;19.70;67.20
21495;DHT22;10909;53.590;10.054;2023-07-22T07:58:32;19.80;66.40
21495;DHT22;10909;53.590;10.054;2023-07-22T08:00:58;19.90;65.80
21495;DHT22;10909;53.590;10.054;2023-07-22T08:03:23;20.00;65.90
21495;DHT22;10909;53.590;10.054;2023-07-22T08:05:49;20.00;66.70
21495;DHT22;10909;53.590;10.054;2023-07-22T08:08:14;20.10;65.80
21495;DHT22;10909;53.590;10.054;2023-07-22T08:10:40;20.10;64.80
21495;DHT22;10909;53.590;10.054;2023-07-22T08:13:06;20.10;64.40
21495;DHT22;10909;53.590;10.054;2023-07-22T08:15:31;20.10;64.90
21495;DHT22;10909;53.590;10.054;2023-07-22T08:17:57;20.20;64.80
21495;DHT22;10909;53.590;10.054;2023-07-22T08:20:23;20.20;64.20
21495;DHT22;10909;53.590;10.054;2023-07-22T08:22:48;20.20;63.50
21495;DHT22;10909;53.590;10.054;2023-07-22T08:25:14;20.20;63.00
21495;DHT22;10909;53.590;10.054;2023-07-22T08:27:39;20.20;62.50
21495;DHT22;10909;53.590;10.054;2023-07-22T08:30:06;20.20;62.80
21495;DHT22;10909;53.590;10.054;2023-07-22T08:32:32;20.20;63.00
21495;DHT22;10909;53.590;10.054;2023-07-22T08:34:58;20.20;63.30
21495;DHT22;10909;53.590;10.054;2023-07-22T08:37:23;20.30;64.00
21495;DHT22;10909;53.590;10.054;2023-07-22T08:39:49;20.30;61.70
21495;DHT22;10909;53.590;10.054;2023-07-22T08:42:18;20.30;61.50
21495;DHT22;10909;53.590;10.054;2023-07-22T08:44:47;20.30;61.50
21495;DHT22;10909;53.590;10.054;2023-07-22T08:47:16;20.30;61.90
21495;DHT22;10909;53.590;10.054;2023-07-22T08:49:51;20.40;61.40
21495;DHT22;10909;53.590;10.054;2023-07-22T08:52:18;20.40;60.60
21495;DHT22;10909;53.590;10.054;2023-07-22T08:54:44;20.40;60.00
21495;DHT22;10909;53.590;10.054;2023-07-22T08:57:11;20.40;60.00
21495;DHT22;10909;53.590;10.054;2023-07-22T08:59:37;20.50;59.50
21495;DHT22;10909;53.590;10.054;2023-07-22T09:02:03;20.50;59.30
21495;DHT22;10909;53.590;10.054;2023-07-22T09:04:30;20.50;59.20
21495;DHT22;10909;53.590;10.054;2023-07-22T09:06:57;20.60;59.20
21495;DHT22;10909;53.590;10.054;2023-07-22T09:09:24;20.60;59.70
21495;DHT22;10909;53.590;10.054;2023-07-22T09:11:51;20.70;59.40
21495;DHT22;10909;53.590;10.054;2023-07-22T09:14:19;20.80;58.90
21495;DHT22;10909;53.590;10.054;2023-07-22T09:16:45;20.80;58.10
21495;DHT22;10909;53.590;10.054;2023-07-22T09:19:11;20.80;58.50
21495;DHT22;10909;53.590;10.054;2023-07-22T09:21:37;20.90;57.70
21495;DHT22;10909;53.590;10.054;2023-07-22T09:24:23;20.90;57.90
21495;DHT22;10909;53.590;10.054;2023-07-22T09:26:49;21.00;56.80
21495;DHT22;10909;53.590;10.054;2023-07-22T09:29:15;21.00;57.00
21495;DHT22;10909;53.590;10.054;2023-07-22T09:31:51;21.00;57.90
21495;DHT22;10909;53.590;10.054;2023-07-22T09:34:17;21.10;57.20
21495;DHT22;10909;53.590;10.054;2023-07-22T09:39:16;21.20;57.00
21495;DHT22;10909;53.590;10.054;2023-07-22T09:41:42;21.30;57.10
21495;DHT22;10909;53.590;10.054;2023-07-22T09:44:09;21.30;56.90
21495;DHT22;10909;53.590;10.054;2023-07-22T09:46:36;21.30;56.90
21495;DHT22;10909;53.590;10.054;2023-07-22T09:49:07;21.30;57.10
21495;DHT22;10909;53.590;10.054;2023-07-22T09:51:39;21.40;57.00
21495;DHT22;10909;53.590;10.054;2023-07-22T09:54:06;21.50;56.80
21495;DHT22;10909;53.590;10.054;2023-07-22T09:56:42;21.50;57.10
21495;DHT22;10909;53.590;10.054;2023-07-22T09:59:09;21.60;56.40
21495;DHT22;10909;53.590;10.054;2023-07-22T10:01:38;21.60;55.70
21495;DHT22;10909;53.590;10.054;2023-07-22T10:04:04;21.70;55.80
21495;DHT22;10909;53.590;10.054;2023-07-22T10:06:31;21.70;56.40
21495;DHT22;10909;53.590;10.054;2023-07-22T10:09:01;21.80;55.70
21495;DHT22;10909;53.590;10.054;2023-07-22T10:11:28;21.90;56.00
21495;DHT22;10909;53.590;10.054;2023-07-22T10:13:55;22.00;55.40
21495;DHT22;10909;53.590;10.054;2023-07-22T10:16:22;22.10;55.40
21495;DHT22;10909;53.590;10.054;2023-07-22T10:18:48;22.10;55.30
21495;DHT22;10909;53.590;10.054;2023-07-22T10:21:14;22.30;55.70
21495;DHT22;10909;53.590;10.054;2023-07-22T10:23:40;22.30;55.60
21495;DHT22;10909;53.590;10.054;2023-07-22T10:26:06;22.40;55.50
21495;DHT22;10909;53.590;10.054;2023-07-22T10:28:32;22.50;54.70
21495;DHT22;10909;53.590;10.054;2023-07-22T10:30:59;22.50;53.60
21495;DHT22;10909;53.590;10.054;2023-07-22T10:33:25;22.50;53.80
21495;DHT22;10909;53.590;10.054;2023-07-22T10:38:30;22.50;51.60
21495;DHT22;10909;53.590;10.054;2023-07-22T10:40:58;22.50;52.50
21495;DHT22;10909;53.590;10.054;2023-07-22T10:43:33;22.60;52.50
21495;DHT22;10909;53.590;10.054;2023-07-22T10:46:10;22.60;51.70
21495;DHT22;10909;53.590;10.054;2023-07-22T10:48:38;22.70;52.30
21495;DHT22;10909;53.590;10.054;2023-07-22T10:51:07;22.70;52.70
21495;DHT22;10909;53.590;10.054;2023-07-22T10:53:40;22.70;52.40
21495;DHT22;10909;53.590;10.054;2023-07-22T11:01:32;22.80;50.50
21495;DHT22;10909;53.590;10.054;2023-07-22T11:14:29;23.20;52.20
21495;DHT22;10909;53.590;10.054;2023-07-22T11:17:00;23.30;52.20
21495;DHT22;10909;53.590;10.054;2023-07-22T11:19:33;23.40;50.70
21495;DHT22;10909;53.590;10.054;2023-07-22T11:22:00;23.50;51.20
21495;DHT22;10909;53.590;10.054;2023-07-22T11:24:26;23.50;51.20
21495;DHT22;10909;53.590;10.054;2023-07-22T11:26:52;23.60;50.00
21495;DHT22;10909;53.590;10.054;2023-07-22T11:29:18;23.60;50.10
21495;DHT22;10909;53.590;10.054;2023-07-22T11:31:46;23.70;50.00
21495;DHT22;10909;53.590;10.054;2023-07-22T11:34:13;23.70;50.00
21495;DHT22;10909;53.590;10.054;2023-07-22T11:36:39;23.70;50.70
21495;DHT22;10909;53.590;10.054;2023-07-22T11:39:08;23.80;50.10
21495;DHT22;10909;53.590;10.054;2023-07-22T11:41:34;23.80;49.40
21495;DHT22;10909;53.590;10.054;2023-07-22T11:44:01;23.80;49.80
21495;DHT22;10909;53.590;10.054;2023-07-22T11:46:27;23.90;49.40
21495;DHT22;10909;53.590;10.054;2023-07-22T11:48:54;23.90;49.60
21495;DHT22;10909;53.590;10.054;2023-07-22T11:51:22;23.90;49.30
21495;DHT22;10909;53.590;10.054;2023-07-22T11:53:50;23.90;48.80
21495;DHT22;10909;53.590;10.054;2023-07-22T11:56:23;23.90;49.20
21495;DHT22;10909;53.590;10.054;2023-07-22T11:58:53;23.80;48.70
21495;DHT22;10909;53.590;10.054;2023-07-22T12:01:19;23.80;49.30
21495;DHT22;10909;53.590;10.054;2023-07-22T12:03:45;23.80;49.80
21495;DHT22;10909;53.590;10.054;2023-07-22T12:06:12;23.80;49.50
21495;DHT22;10909;53.590;10.054;2023-07-22T12:08:48;23.90;49.50
21495;DHT22;10909;53.590;10.054;2023-07-22T12:11:33;23.90;49.00
21495;DHT22;10909;53.590;10.054;2023-07-22T12:16:38;24.00;49.10
21495;DHT22;10909;53.590;10.054;2023-07-22T12:19:04;24.10;49.30
21495;DHT22;10909;53.590;10.054;2023-07-22T12:21:31;24.10;49.50
21495;DHT22;10909;53.590;10.054;2023-07-22T12:23:57;24.20;49.70
21495;DHT22;10909;53.590;10.054;2023-07-22T12:26:23;24.30;49.90
21495;DHT22;10909;53.590;10.054;2023-07-22T12:28:48;24.40;50.00
21495;DHT22;10909;53.590;10.054;2023-07-22T12:31:14;24.50;49.80
21495;DHT22;10909;53.590;10.054;2023-07-22T12:33:40;24.70;49.60
21495;DHT22;10909;53.590;10.054;2023-07-22T12:36:06;24.80;49.00
21495;DHT22;10909;53.590;10.054;2023-07-22T12:38:32;24.80;48.60
21495;DHT22;10909;53.590;10.054;2023-07-22T12:40:57;24.90;48.80
21495;DHT22;10909;53.590;10.054;2023-07-22T12:43:23;24.80;48.60
21495;DHT22;10909;53.590;10.054;2023-07-22T12:45:49;24.80;48.20
21495;DHT22;10909;53.590;10.054;2023-07-22T12:48:16;24.70;47.90
21495;DHT22;10909;53.590;10.054;2023-07-22T12:50:42;24.50;48.00
21495;DHT22;10909;53.590;10.054;2023-07-22T12:53:08;24.30;47.70
21495;DHT22;10909;53.590;10.054;2023-07-22T12:55:34;24.20;48.20
21495;DHT22;10909;53.590;10.054;2023-07-22T12:57:59;24.00;48.80
21495;DHT22;10909;53.590;10.054;2023-07-22T13:00:25;23.80;49.40
21495;DHT22;10909;53.590;10.054;2023-07-22T13:02:51;23.60;49.90
21495;DHT22;10909;53.590;10.054;2023-07-22T13:05:17;23.40;50.50
21495;DHT22;10909;53.590;10.054;2023-07-22T13:07:43;23.30;50.40
21495;DHT22;10909;53.590;10.054;2023-07-22T13:10:09;23.10;50.40
21495;DHT22;10909;53.590;10.054;2023-07-22T13:12:38;23.00;50.70
21495;DHT22;10909;53.590;10.054;2023-07-22T13:15:05;22.90;51.10
21495;DHT22;10909;53.590;10.054;2023-07-22T13:17:31;22.80;51.50
21495;DHT22;10909;53.590;10.054;2023-07-22T13:19:57;22.70;51.90
21495;DHT22;10909;53.590;10.054;2023-07-22T13:22:23;22.60;52.30
21495;DHT22;10909;53.590;10.054;2023-07-22T13:24:49;22.60;52.50
21495;DHT22;10909;53.590;10.054;2023-07-22T13:27:14;22.50;52.80
21495;DHT22;10909;53.590;10.054;2023-07-22T13:29:40;22.40;53.20
21495;DHT22;10909;53.590;10.054;2023-07-22T13:35:28;22.30;54.10
21495;DHT22;10909;53.590;10.054;2023-07-22T13:37:54;22.20;54.00
21495;DHT22;10909;53.590;10.054;2023-07-22T13:40:19;22.20;54.30
21495;DHT22;10909;53.590;10.054;2023-07-22T13:42:46;22.20;54.60
21495;DHT22;10909;53.590;10.054;2023-07-22T13:45:12;22.10;54.80
21495;DHT22;10909;53.590;10.054;2023-07-22T13:47:37;22.00;54.90
21495;DHT22;10909;53.590;10.054;2023-07-22T13:50:03;21.80;55.50
21495;DHT22;10909;53.590;10.054;2023-07-22T13:52:29;21.60;55.90
21495;DHT22;10909;53.590;10.054;2023-07-22T13:54:55;21.40;56.40
21495;DHT22;10909;53.590;10.054;2023-07-22T13:57:21;21.20;56.90
21495;DHT22;10909;53.590;10.054;2023-07-22T13:59:46;21.10;57.50
21495;DHT22;10909;53.590;10.054;2023-07-22T14:02:12;21.00;58.30
21495;DHT22;10909;53.590;10.054;2023-07-22T14:04:38;21.00;58.90
21495;DHT22;10909;53.590;10.054;2023-07-22T14:07:04;21.00;59.10
21495;DHT22;10909;53.590;10.054;2023-07-22T14:09:30;21.10;59.40
21495;DHT22;10909;53.590;10.054;2023-07-22T14:11:55;21.20;59.30
21495;DHT22;10909;53.590;10.054;2023-07-22T14:14:21;21.20;59.40
21495;DHT22;10909;53.590;10.054;2023-07-22T14:16:56;21.30;59.40
21495;DHT22;10909;53.590;10.054;2023-07-22T14:19:22;21.30;59.40
21495;DHT22;10909;53.590;10.054;2023-07-22T14:21:48;21.40;59.40
21495;DHT22;10909;53.590;10.054;2023-07-22T14:24:14;21.50;59.60
21495;DHT22;10909;53.590;10.054;2023-07-22T14:26:39;21.60;59.80
21495;DHT22;10909;53.590;10.054;2023-07-22T14:29:05;21.70;60.00
21495;DHT22;10909;53.590;10.054;2023-07-22T14:31:30;21.90;60.30
21495;DHT22;10909;53.590;10.054;2023-07-22T14:33:56;22.10;60.60
21495;DHT22;10909;53.590;10.054;2023-07-22T14:36:22;22.30;60.10
21495;DHT22;10909;53.590;10.054;2023-07-22T14:38:47;22.40;59.50
21495;DHT22;10909;53.590;10.054;2023-07-22T14:41:13;22.50;59.00
21495;DHT22;10909;53.590;10.054;2023-07-22T14:43:39;22.50;58.50
21495;DHT22;10909;53.590;10.054;2023-07-22T14:46:04;22.60;58.60
21495;DHT22;10909;53.590;10.054;2023-07-22T14:48:30;22.50;57.60
21495;DHT22;10909;53.590;10.054;2023-07-22T14:50:56;22.50;57.40
21495;DHT22;10909;53.590;10.054;2023-07-22T14:53:22;22.40;57.30
21495;DHT22;10909;53.590;10.054;2023-07-22T14:55:47;22.30;57.40
21495;DHT22;10909;53.590;10.054;2023-07-22T14:58:13;22.30;57.80
21495;DHT22;10909;53.590;10.054;2023-07-22T15:00:39;22.20;57.60
21495;DHT22;10909;53.590;10.054;2023-07-22T15:03:04;22.20;57.30
21495;DHT22;10909;53.590;10.054;2023-07-22T15:05:30;22.10;56.50
21495;DHT22;10909;53.590;10.054;2023-07-22T15:07:56;22.10;56.60
21495;DHT22;10909;53.590;10.054;2023-07-22T15:10:22;22.00;56.70
21495;DHT22;10909;53.590;10.054;2023-07-22T15:12:48;22.00;56.90
21495;DHT22;10909;53.590;10.054;2023-07-22T15:15:13;21.90;56.60
21495;DHT22;10909;53.590;10.054;2023-07-22T15:17:39;21.90;56.50
21495;DHT22;10909;53.590;10.054;2023-07-22T15:20:06;21.90;56.70
21495;DHT22;10909;53.590;10.054;2023-07-22T15:22:31;21.90;56.80
21495;DHT22;10909;53.590;10.054;2023-07-22T15:24:57;21.90;57.00
21495;DHT22;10909;53.590;10.054;2023-07-22T15:27:22;21.80;56.90
21495;DHT22;10909;53.590;10.054;2023-07-22T15:29:48;21.90;57.00
21495;DHT22;10909;53.590;10.054;2023-07-22T15:32:14;21.90;57.20
21495;DHT22;10909;53.590;10.054;2023-07-22T15:34:41;21.90;57.30
21495;DHT22;10909;53.590;10.054;2023-07-22T15:37:06;21.90;57.30
21495;DHT22;10909;53.590;10.054;2023-07-22T15:39:32;21.90;57.20
21495;DHT22;10909;53.590;10.054;2023-07-22T15:41:57;21.90;57.50